Terminal Aerodrome Forecast
Issued by NWS Wakefield, VA

Home | Current Version | Previous Version | Text Only | Print | Product List | Glossary On
Versions: 1 2 3 4 5 6 7 8 9 10 11 12 13 14 15 16 17 18 19 20 21 22 23 24
091
FTUS41 KAKQ 310744 AAA
TAFORF
TAF AMD
KORF 310744Z 3108/0106 VRB03KT P6SM -DZ BKN004 OVC025
     FM311000 00000KT 2SM -DZ BR BKN004 OVC015
     FM311200 05005KT P6SM -SHRADZ BKN004 BKN020 OVC040
     FM311700 07008KT P6SM -SHRA SCT025 BKN120 OVC200
     FM010300 08004KT P6SM VCSH BKN010 BKN120 OVC200=

USA.gov is the U.S. government's official web portal to all federal, state and local government web resources and services.